sensor_id;sensor_type;location;lat;lon;timestamp;P1;durP1;ratioP1;P2;durP2;ratioP2
64367;SDS011;50692;53.314;-6.300;2023-05-07T00:01:09;6.28;;;2.92;;
64367;SDS011;50692;53.314;-6.300;2023-05-07T00:03:56;5.72;;;2.70;;
64367;SDS011;50692;53.314;-6.300;2023-05-07T00:06:42;4.38;;;2.40;;
64367;SDS011;50692;53.314;-6.300;2023-05-07T00:09:27;8.27;;;2.90;;
64367;SDS011;50692;53.314;-6.300;2023-05-07T00:12:13;6.25;;;2.55;;
64367;SDS011;50692;53.314;-6.300;2023-05-07T00:15:01;6.95;;;2.97;;
64367;SDS011;50692;53.314;-6.300;2023-05-07T00:17:48;5.10;;;2.67;;
64367;SDS011;50692;53.314;-6.300;2023-05-07T00:20:33;8.40;;;2.67;;
64367;SDS011;50692;53.314;-6.300;2023-05-07T00:23:19;5.45;;;3.00;;
64367;SDS011;50692;53.314;-6.300;2023-05-07T00:26:05;8.02;;;2.88;;
64367;SDS011;50692;53.314;-6.300;2023-05-07T00:28:51;6.32;;;2.80;;
64367;SDS011;50692;53.314;-6.300;2023-05-07T00:31:36;7.75;;;2.95;;
64367;SDS011;50692;53.314;-6.300;2023-05-07T00:34:22;4.78;;;2.60;;
64367;SDS011;50692;53.314;-6.300;2023-05-07T00:37:08;6.15;;;3.13;;
64367;SDS011;50692;53.314;-6.300;2023-05-07T00:39:54;5.95;;;3.22;;
64367;SDS011;50692;53.314;-6.300;2023-05-07T00:42:40;6.38;;;3.15;;
64367;SDS011;50692;53.314;-6.300;2023-05-07T00:45:26;9.23;;;3.55;;
64367;SDS011;50692;53.314;-6.300;2023-05-07T00:48:13;6.80;;;3.45;;
64367;SDS011;50692;53.314;-6.300;2023-05-07T00:50:59;6.50;;;2.65;;
64367;SDS011;50692;53.314;-6.300;2023-05-07T00:53:45;7.30;;;2.50;;
64367;SDS011;50692;53.314;-6.300;2023-05-07T00:56:32;5.93;;;2.30;;
64367;SDS011;50692;53.314;-6.300;2023-05-07T00:59:18;8.65;;;2.85;;
64367;SDS011;50692;53.314;-6.300;2023-05-07T01:02:04;5.60;;;2.63;;
64367;SDS011;50692;53.314;-6.300;2023-05-07T01:04:50;5.47;;;2.35;;
64367;SDS011;50692;53.314;-6.300;2023-05-07T01:07:36;4.70;;;2.40;;
64367;SDS011;50692;53.314;-6.300;2023-05-07T01:10:24;6.15;;;2.75;;
64367;SDS011;50692;53.314;-6.300;2023-05-07T01:13:10;6.07;;;2.80;;
64367;SDS011;50692;53.314;-6.300;2023-05-07T01:15:58;5.32;;;2.60;;
64367;SDS011;50692;53.314;-6.300;2023-05-07T01:18:44;6.55;;;2.38;;
64367;SDS011;50692;53.314;-6.300;2023-05-07T01:21:31;4.43;;;2.75;;
64367;SDS011;50692;53.314;-6.300;2023-05-07T01:24:20;5.20;;;2.35;;
64367;SDS011;50692;53.314;-6.300;2023-05-07T01:27:06;5.05;;;2.30;;
64367;SDS011;50692;53.314;-6.300;2023-05-07T01:29:52;5.10;;;2.53;;
64367;SDS011;50692;53.314;-6.300;2023-05-07T01:35:40;3.75;;;2.40;;
64367;SDS011;50692;53.314;-6.300;2023-05-07T01:38:27;6.80;;;2.97;;
64367;SDS011;50692;53.314;-6.300;2023-05-07T01:41:14;3.85;;;2.30;;
64367;SDS011;50692;53.314;-6.300;2023-05-07T01:44:00;3.88;;;1.88;;
64367;SDS011;50692;53.314;-6.300;2023-05-07T01:46:48;5.35;;;2.40;;
64367;SDS011;50692;53.314;-6.300;2023-05-07T01:49:34;3.13;;;1.80;;
64367;SDS011;50692;53.314;-6.300;2023-05-07T01:52:20;6.13;;;1.90;;
64367;SDS011;50692;53.314;-6.300;2023-05-07T01:55:06;4.45;;;1.90;;
64367;SDS011;50692;53.314;-6.300;2023-05-07T01:57:52;4.93;;;1.95;;
64367;SDS011;50692;53.314;-6.300;2023-05-07T02:00:39;3.22;;;2.00;;
64367;SDS011;50692;53.314;-6.300;2023-05-07T02:03:25;5.63;;;2.13;;
64367;SDS011;50692;53.314;-6.300;2023-05-07T02:06:11;3.85;;;2.10;;
64367;SDS011;50692;53.314;-6.300;2023-05-07T02:08:57;4.38;;;2.20;;
64367;SDS011;50692;53.314;-6.300;2023-05-07T02:11:42;3.53;;;1.92;;
64367;SDS011;50692;53.314;-6.300;2023-05-07T02:14:28;4.10;;;2.22;;
64367;SDS011;50692;53.314;-6.300;2023-05-07T02:17:14;4.45;;;2.08;;
64367;SDS011;50692;53.314;-6.300;2023-05-07T02:20:00;5.93;;;2.17;;
64367;SDS011;50692;53.314;-6.300;2023-05-07T02:22:46;4.18;;;2.20;;
64367;SDS011;50692;53.314;-6.300;2023-05-07T02:25:32;4.00;;;2.10;;
64367;SDS011;50692;53.314;-6.300;2023-05-07T02:28:18;3.53;;;2.58;;
64367;SDS011;50692;53.314;-6.300;2023-05-07T02:31:04;5.20;;;2.40;;
64367;SDS011;50692;53.314;-6.300;2023-05-07T02:33:50;4.28;;;2.00;;
64367;SDS011;50692;53.314;-6.300;2023-05-07T02:36:35;5.25;;;2.53;;
64367;SDS011;50692;53.314;-6.300;2023-05-07T02:39:21;5.00;;;2.10;;
64367;SDS011;50692;53.314;-6.300;2023-05-07T02:42:07;3.25;;;1.95;;
64367;SDS011;50692;53.314;-6.300;2023-05-07T02:44:53;5.53;;;2.33;;
64367;SDS011;50692;53.314;-6.300;2023-05-07T02:47:39;4.18;;;2.10;;
64367;SDS011;50692;53.314;-6.300;2023-05-07T02:50:25;5.03;;;2.15;;
64367;SDS011;50692;53.314;-6.300;2023-05-07T02:53:11;4.35;;;2.20;;
64367;SDS011;50692;53.314;-6.300;2023-05-07T02:55:58;4.15;;;2.10;;
64367;SDS011;50692;53.314;-6.300;2023-05-07T02:58:45;3.25;;;2.00;;
64367;SDS011;50692;53.314;-6.300;2023-05-07T03:01:32;4.80;;;1.90;;
64367;SDS011;50692;53.314;-6.300;2023-05-07T03:04:18;5.53;;;2.40;;
64367;SDS011;50692;53.314;-6.300;2023-05-07T03:07:04;4.03;;;2.08;;
64367;SDS011;50692;53.314;-6.300;2023-05-07T03:09:50;3.58;;;1.90;;
64367;SDS011;50692;53.314;-6.300;2023-05-07T03:12:35;4.35;;;1.67;;
64367;SDS011;50692;53.314;-6.300;2023-05-07T03:15:21;3.70;;;1.70;;
64367;SDS011;50692;53.314;-6.300;2023-05-07T03:18:07;3.83;;;1.83;;
64367;SDS011;50692;53.314;-6.300;2023-05-07T03:20:53;3.53;;;1.83;;
64367;SDS011;50692;53.314;-6.300;2023-05-07T03:23:39;2.60;;;1.75;;
64367;SDS011;50692;53.314;-6.300;2023-05-07T03:26:25;3.60;;;1.90;;
64367;SDS011;50692;53.314;-6.300;2023-05-07T03:29:11;4.35;;;2.10;;
64367;SDS011;50692;53.314;-6.300;2023-05-07T03:31:57;3.33;;;1.83;;
64367;SDS011;50692;53.314;-6.300;2023-05-07T03:34:42;4.32;;;1.98;;
64367;SDS011;50692;53.314;-6.300;2023-05-07T03:37:28;2.50;;;1.58;;
64367;SDS011;50692;53.314;-6.300;2023-05-07T03:40:14;2.50;;;1.90;;
64367;SDS011;50692;53.314;-6.300;2023-05-07T03:43:00;6.05;;;2.58;;
64367;SDS011;50692;53.314;-6.300;2023-05-07T03:45:46;3.15;;;1.80;;
64367;SDS011;50692;53.314;-6.300;2023-05-07T03:48:32;5.07;;;2.30;;
64367;SDS011;50692;53.314;-6.300;2023-05-07T03:51:18;3.03;;;2.15;;
64367;SDS011;50692;53.314;-6.300;2023-05-07T03:54:04;2.85;;;2.00;;
64367;SDS011;50692;53.314;-6.300;2023-05-07T03:56:50;3.30;;;1.90;;
64367;SDS011;50692;53.314;-6.300;2023-05-07T03:59:35;2.65;;;1.63;;
64367;SDS011;50692;53.314;-6.300;2023-05-07T04:02:21;2.40;;;1.58;;
64367;SDS011;50692;53.314;-6.300;2023-05-07T04:05:07;4.75;;;2.05;;
64367;SDS011;50692;53.314;-6.300;2023-05-07T04:07:53;4.13;;;1.38;;
64367;SDS011;50692;53.314;-6.300;2023-05-07T04:10:39;2.55;;;1.38;;
64367;SDS011;50692;53.314;-6.300;2023-05-07T04:13:25;2.80;;;1.60;;
64367;SDS011;50692;53.314;-6.300;2023-05-07T04:16:11;2.50;;;1.30;;
64367;SDS011;50692;53.314;-6.300;2023-05-07T04:18:57;1.95;;;1.20;;
64367;SDS011;50692;53.314;-6.300;2023-05-07T04:21:42;1.95;;;1.35;;
64367;SDS011;50692;53.314;-6.300;2023-05-07T04:24:31;2.00;;;1.63;;
64367;SDS011;50692;53.314;-6.300;2023-05-07T04:30:04;2.00;;;1.20;;
64367;SDS011;50692;53.314;-6.300;2023-05-07T04:32:50;3.47;;;1.30;;
64367;SDS011;50692;53.314;-6.300;2023-05-07T04:35:36;1.40;;;1.20;;
64367;SDS011;50692;53.314;-6.300;2023-05-07T04:38:22;3.08;;;1.67;;
64367;SDS011;50692;53.314;-6.300;2023-05-07T04:41:09;1.42;;;1.13;;
64367;SDS011;50692;53.314;-6.300;2023-05-07T04:43:55;1.55;;;0.98;;
64367;SDS011;50692;53.314;-6.300;2023-05-07T04:46:40;2.65;;;1.27;;
64367;SDS011;50692;53.314;-6.300;2023-05-07T04:49:26;2.28;;;1.23;;
64367;SDS011;50692;53.314;-6.300;2023-05-07T04:52:12;1.75;;;0.98;;
64367;SDS011;50692;53.314;-6.300;2023-05-07T04:55:01;2.45;;;1.02;;
64367;SDS011;50692;53.314;-6.300;2023-05-07T04:57:47;2.28;;;1.20;;
64367;SDS011;50692;53.314;-6.300;2023-05-07T05:00:33;1.70;;;1.10;;
64367;SDS011;50692;53.314;-6.300;2023-05-07T05:03:19;2.65;;;1.50;;
64367;SDS011;50692;53.314;-6.300;2023-05-07T05:06:05;3.13;;;1.35;;
64367;SDS011;50692;53.314;-6.300;2023-05-07T05:08:51;1.63;;;0.90;;
64367;SDS011;50692;53.314;-6.300;2023-05-07T05:11:37;2.63;;;1.45;;
64367;SDS011;50692;53.314;-6.300;2023-05-07T05:14:23;2.00;;;1.17;;
64367;SDS011;50692;53.314;-6.300;2023-05-07T05:17:09;2.33;;;1.27;;
64367;SDS011;50692;53.314;-6.300;2023-05-07T05:19:55;2.15;;;1.20;;
64367;SDS011;50692;53.314;-6.300;2023-05-07T05:22:41;1.85;;;1.23;;
64367;SDS011;50692;53.314;-6.300;2023-05-07T05:25:27;2.25;;;1.15;;
64367;SDS011;50692;53.314;-6.300;2023-05-07T05:28:13;2.65;;;1.00;;
64367;SDS011;50692;53.314;-6.300;2023-05-07T05:30:59;2.15;;;1.23;;
64367;SDS011;50692;53.314;-6.300;2023-05-07T05:33:45;1.67;;;1.08;;
64367;SDS011;50692;53.314;-6.300;2023-05-07T05:36:31;1.15;;;1.02;;
64367;SDS011;50692;53.314;-6.300;2023-05-07T05:39:17;1.40;;;1.00;;
64367;SDS011;50692;53.314;-6.300;2023-05-07T05:42:03;3.00;;;1.20;;
64367;SDS011;50692;53.314;-6.300;2023-05-07T05:44:48;1.80;;;1.20;;
64367;SDS011;50692;53.314;-6.300;2023-05-07T05:47:34;2.65;;;1.20;;
64367;SDS011;50692;53.314;-6.300;2023-05-07T05:50:20;5.25;;;1.70;;
64367;SDS011;50692;53.314;-6.300;2023-05-07T05:53:06;3.70;;;1.25;;
64367;SDS011;50692;53.314;-6.300;2023-05-07T05:55:52;2.35;;;1.10;;
64367;SDS011;50692;53.314;-6.300;2023-05-07T05:58:38;1.48;;;0.90;;
64367;SDS011;50692;53.314;-6.300;2023-05-07T06:01:24;3.22;;;1.17;;
64367;SDS011;50692;53.314;-6.300;2023-05-07T06:04:10;2.70;;;1.30;;
64367;SDS011;50692;53.314;-6.300;2023-05-07T06:06:55;2.72;;;1.20;;
64367;SDS011;50692;53.314;-6.300;2023-05-07T06:09:42;2.35;;;1.38;;
64367;SDS011;50692;53.314;-6.300;2023-05-07T06:12:27;3.47;;;2.20;;
64367;SDS011;50692;53.314;-6.300;2023-05-07T06:15:13;3.72;;;1.77;;
64367;SDS011;50692;53.314;-6.300;2023-05-07T06:18:00;2.85;;;1.38;;
64367;SDS011;50692;53.314;-6.300;2023-05-07T06:20:46;3.05;;;1.40;;
64367;SDS011;50692;53.314;-6.300;2023-05-07T06:23:32;2.45;;;1.45;;
64367;SDS011;50692;53.314;-6.300;2023-05-07T06:26:18;3.55;;;1.70;;
64367;SDS011;50692;53.314;-6.300;2023-05-07T06:29:04;2.28;;;1.20;;
64367;SDS011;50692;53.314;-6.300;2023-05-07T06:31:49;1.83;;;1.23;;
64367;SDS011;50692;53.314;-6.300;2023-05-07T06:34:35;3.60;;;1.25;;
64367;SDS011;50692;53.314;-6.300;2023-05-07T06:37:21;3.33;;;1.40;;
64367;SDS011;50692;53.314;-6.300;2023-05-07T06:40:08;2.10;;;1.27;;
64367;SDS011;50692;53.314;-6.300;2023-05-07T06:42:54;2.72;;;1.38;;
64367;SDS011;50692;53.314;-6.300;2023-05-07T06:45:40;2.92;;;1.60;;
64367;SDS011;50692;53.314;-6.300;2023-05-07T06:48:26;4.03;;;1.33;;
64367;SDS011;50692;53.314;-6.300;2023-05-07T06:51:12;2.75;;;1.23;;
64367;SDS011;50692;53.314;-6.300;2023-05-07T06:53:57;2.42;;;1.35;;
64367;SDS011;50692;53.314;-6.300;2023-05-07T06:56:43;2.63;;;1.45;;
64367;SDS011;50692;53.314;-6.300;2023-05-07T06:59:29;2.90;;;1.40;;
64367;SDS011;50692;53.314;-6.300;2023-05-07T07:02:15;3.63;;;1.20;;
64367;SDS011;50692;53.314;-6.300;2023-05-07T07:05:01;2.20;;;1.40;;
64367;SDS011;50692;53.314;-6.300;2023-05-07T07:07:48;1.95;;;1.10;;
64367;SDS011;50692;53.314;-6.300;2023-05-07T07:10:40;1.85;;;1.17;;
64367;SDS011;50692;53.314;-6.300;2023-05-07T07:13:25;1.42;;;1.10;;
64367;SDS011;50692;53.314;-6.300;2023-05-07T07:16:11;2.40;;;1.05;;
64367;SDS011;50692;53.314;-6.300;2023-05-07T07:18:57;3.85;;;1.27;;
64367;SDS011;50692;53.314;-6.300;2023-05-07T07:21:43;1.88;;;1.40;;
64367;SDS011;50692;53.314;-6.300;2023-05-07T07:24:30;3.70;;;1.23;;
64367;SDS011;50692;53.314;-6.300;2023-05-07T07:27:15;2.53;;;1.50;;
64367;SDS011;50692;53.314;-6.300;2023-05-07T07:30:01;2.53;;;1.20;;
64367;SDS011;50692;53.314;-6.300;2023-05-07T07:32:49;2.22;;;1.58;;
64367;SDS011;50692;53.314;-6.300;2023-05-07T07:35:34;2.00;;;1.38;;
64367;SDS011;50692;53.314;-6.300;2023-05-07T07:38:20;2.80;;;1.50;;
64367;SDS011;50692;53.314;-6.300;2023-05-07T07:41:09;4.63;;;1.50;;
64367;SDS011;50692;53.314;-6.300;2023-05-07T07:43:55;2.00;;;0.90;;
64367;SDS011;50692;53.314;-6.300;2023-05-07T07:46:41;2.55;;;1.58;;
64367;SDS011;50692;53.314;-6.300;2023-05-07T07:49:27;4.88;;;1.33;;
64367;SDS011;50692;53.314;-6.300;2023-05-07T07:52:13;4.53;;;1.70;;
64367;SDS011;50692;53.314;-6.300;2023-05-07T07:54:58;2.30;;;1.17;;
64367;SDS011;50692;53.314;-6.300;2023-05-07T07:57:44;2.90;;;1.25;;
64367;SDS011;50692;53.314;-6.300;2023-05-07T08:00:30;3.97;;;1.20;;
64367;SDS011;50692;53.314;-6.300;2023-05-07T08:03:16;2.97;;;1.40;;
64367;SDS011;50692;53.314;-6.300;2023-05-07T08:06:02;1.50;;;1.05;;
64367;SDS011;50692;53.314;-6.300;2023-05-07T08:08:48;2.85;;;1.27;;
64367;SDS011;50692;53.314;-6.300;2023-05-07T08:11:34;2.90;;;1.48;;
64367;SDS011;50692;53.314;-6.300;2023-05-07T08:14:19;4.45;;;1.80;;
64367;SDS011;50692;53.314;-6.300;2023-05-07T08:17:05;2.70;;;1.33;;
64367;SDS011;50692;53.314;-6.300;2023-05-07T08:19:51;2.80;;;1.20;;
64367;SDS011;50692;53.314;-6.300;2023-05-07T08:22:37;2.65;;;1.20;;
64367;SDS011;50692;53.314;-6.300;2023-05-07T08:25:25;1.13;;;0.95;;
64367;SDS011;50692;53.314;-6.300;2023-05-07T08:28:11;2.95;;;1.27;;
64367;SDS011;50692;53.314;-6.300;2023-05-07T08:30:57;1.50;;;1.05;;
64367;SDS011;50692;53.314;-6.300;2023-05-07T08:33:45;2.03;;;1.33;;
64367;SDS011;50692;53.314;-6.300;2023-05-07T08:36:30;3.17;;;1.52;;
64367;SDS011;50692;53.314;-6.300;2023-05-07T08:39:16;4.57;;;1.33;;
64367;SDS011;50692;53.314;-6.300;2023-05-07T08:42:02;5.28;;;1.13;;
64367;SDS011;50692;53.314;-6.300;2023-05-07T08:44:51;2.42;;;1.13;;
64367;SDS011;50692;53.314;-6.300;2023-05-07T08:47:44;3.03;;;1.40;;
64367;SDS011;50692;53.314;-6.300;2023-05-07T08:50:41;1.52;;;1.10;;
64367;SDS011;50692;53.314;-6.300;2023-05-07T08:53:27;3.10;;;1.15;;
64367;SDS011;50692;53.314;-6.300;2023-05-07T08:56:13;2.60;;;1.60;;
64367;SDS011;50692;53.314;-6.300;2023-05-07T08:59:00;2.38;;;1.10;;
64367;SDS011;50692;53.314;-6.300;2023-05-07T09:01:46;3.10;;;1.13;;
64367;SDS011;50692;53.314;-6.300;2023-05-07T09:04:32;3.15;;;1.42;;
64367;SDS011;50692;53.314;-6.300;2023-05-07T09:07:19;1.15;;;0.82;;
64367;SDS011;50692;53.314;-6.300;2023-05-07T09:10:05;1.77;;;1.02;;
64367;SDS011;50692;53.314;-6.300;2023-05-07T09:12:52;2.60;;;1.38;;
64367;SDS011;50692;53.314;-6.300;2023-05-07T09:15:37;2.47;;;0.90;;
64367;SDS011;50692;53.314;-6.300;2023-05-07T09:18:24;1.85;;;1.00;;
64367;SDS011;50692;53.314;-6.300;2023-05-07T09:21:11;1.88;;;1.00;;
64367;SDS011;50692;53.314;-6.300;2023-05-07T09:24:00;1.77;;;1.17;;
64367;SDS011;50692;53.314;-6.300;2023-05-07T09:26:46;2.85;;;1.40;;
64367;SDS011;50692;53.314;-6.300;2023-05-07T09:29:32;1.52;;;0.90;;
64367;SDS011;50692;53.314;-6.300;2023-05-07T09:32:20;1.90;;;1.25;;
64367;SDS011;50692;53.314;-6.300;2023-05-07T09:35:10;1.67;;;1.15;;
64367;SDS011;50692;53.314;-6.300;2023-05-07T09:38:01;3.28;;;1.30;;
64367;SDS011;50692;53.314;-6.300;2023-05-07T09:40:48;2.90;;;1.10;;
64367;SDS011;50692;53.314;-6.300;2023-05-07T09:43:48;2.33;;;1.40;;
64367;SDS011;50692;53.314;-6.300;2023-05-07T09:46:39;1.45;;;1.20;;
64367;SDS011;50692;53.314;-6.300;2023-05-07T09:49:30;1.50;;;1.10;;
64367;SDS011;50692;53.314;-6.300;2023-05-07T09:52:18;2.78;;;1.00;;
64367;SDS011;50692;53.314;-6.300;2023-05-07T09:55:06;2.58;;;1.08;;
64367;SDS011;50692;53.314;-6.300;2023-05-07T09:57:53;2.60;;;1.50;;
64367;SDS011;50692;53.314;-6.300;2023-05-07T10:00:39;1.85;;;1.15;;
64367;SDS011;50692;53.314;-6.300;2023-05-07T10:03:26;1.88;;;1.00;;
64367;SDS011;50692;53.314;-6.300;2023-05-07T10:06:14;2.83;;;1.10;;
64367;SDS011;50692;53.314;-6.300;2023-05-07T10:09:01;1.70;;;0.98;;
64367;SDS011;50692;53.314;-6.300;2023-05-07T10:11:51;1.30;;;1.00;;
64367;SDS011;50692;53.314;-6.300;2023-05-07T10:14:38;2.85;;;1.30;;
64367;SDS011;50692;53.314;-6.300;2023-05-07T10:17:23;2.10;;;1.40;;
64367;SDS011;50692;53.314;-6.300;2023-05-07T10:20:10;2.60;;;1.17;;
64367;SDS011;50692;53.314;-6.300;2023-05-07T10:22:56;2.42;;;1.50;;
64367;SDS011;50692;53.314;-6.300;2023-05-07T10:25:43;2.10;;;1.20;;
64367;SDS011;50692;53.314;-6.300;2023-05-07T10:28:30;1.90;;;1.08;;
64367;SDS011;50692;53.314;-6.300;2023-05-07T10:31:31;2.45;;;1.33;;
64367;SDS011;50692;53.314;-6.300;2023-05-07T10:34:32;1.52;;;1.20;;
64367;SDS011;50692;53.314;-6.300;2023-05-07T10:37:22;2.30;;;1.10;;
64367;SDS011;50692;53.314;-6.300;2023-05-07T10:40:10;4.57;;;1.65;;
64367;SDS011;50692;53.314;-6.300;2023-05-07T10:42:58;1.23;;;1.10;;
64367;SDS011;50692;53.314;-6.300;2023-05-07T10:49:06;1.83;;;1.10;;
64367;SDS011;50692;53.314;-6.300;2023-05-07T10:55:32;1.90;;;1.20;;
64367;SDS011;50692;53.314;-6.300;2023-05-07T10:58:27;3.65;;;1.30;;
64367;SDS011;50692;53.314;-6.300;2023-05-07T11:01:13;2.63;;;1.45;;
64367;SDS011;50692;53.314;-6.300;2023-05-07T11:04:14;3.30;;;1.45;;
64367;SDS011;50692;53.314;-6.300;2023-05-07T11:09:57;1.95;;;1.40;;
64367;SDS011;50692;53.314;-6.300;2023-05-07T11:12:50;2.72;;;1.50;;
64367;SDS011;50692;53.314;-6.300;2023-05-07T11:15:41;2.03;;;1.30;;
64367;SDS011;50692;53.314;-6.300;2023-05-07T11:18:53;2.75;;;1.40;;
64367;SDS011;50692;53.314;-6.300;2023-05-07T11:21:41;2.38;;;1.50;;
64367;SDS011;50692;53.314;-6.300;2023-05-07T11:24:27;2.67;;;1.50;;
64367;SDS011;50692;53.314;-6.300;2023-05-07T11:27:13;2.25;;;1.50;;
64367;SDS011;50692;53.314;-6.300;2023-05-07T11:29:59;2.88;;;1.35;;
64367;SDS011;50692;53.314;-6.300;2023-05-07T11:32:48;3.42;;;1.80;;
64367;SDS011;50692;53.314;-6.300;2023-05-07T11:35:34;5.47;;;1.92;;
64367;SDS011;50692;53.314;-6.300;2023-05-07T11:38:20;2.80;;;1.67;;
64367;SDS011;50692;53.314;-6.300;2023-05-07T11:41:06;2.90;;;1.70;;
64367;SDS011;50692;53.314;-6.300;2023-05-07T11:43:53;2.88;;;1.60;;
64367;SDS011;50692;53.314;-6.300;2023-05-07T11:46:42;2.70;;;1.50;;
64367;SDS011;50692;53.314;-6.300;2023-05-07T11:49:29;2.55;;;1.77;;
64367;SDS011;50692;53.314;-6.300;2023-05-07T11:52:16;3.88;;;1.60;;
64367;SDS011;50692;53.314;-6.300;2023-05-07T11:55:03;3.72;;;1.50;;
64367;SDS011;50692;53.314;-6.300;2023-05-07T11:57:49;4.82;;;1.65;;
64367;SDS011;50692;53.314;-6.300;2023-05-07T12:00:35;3.90;;;1.55;;
64367;SDS011;50692;53.314;-6.300;2023-05-07T12:03:21;2.15;;;1.40;;
64367;SDS011;50692;53.314;-6.300;2023-05-07T12:06:07;2.55;;;1.80;;
64367;SDS011;50692;53.314;-6.300;2023-05-07T12:08:54;1.92;;;1.58;;
64367;SDS011;50692;53.314;-6.300;2023-05-07T12:11:40;1.77;;;1.27;;
64367;SDS011;50692;53.314;-6.300;2023-05-07T12:14:30;2.30;;;1.38;;
64367;SDS011;50692;53.314;-6.300;2023-05-07T12:17:18;2.40;;;1.30;;
64367;SDS011;50692;53.314;-6.300;2023-05-07T12:20:04;1.95;;;1.10;;
64367;SDS011;50692;53.314;-6.300;2023-05-07T12:22:50;2.10;;;1.50;;
64367;SDS011;50692;53.314;-6.300;2023-05-07T12:25:37;1.70;;;1.20;;
64367;SDS011;50692;53.314;-6.300;2023-05-07T12:28:24;1.40;;;0.82;;
64367;SDS011;50692;53.314;-6.300;2023-05-07T12:31:10;1.83;;;0.82;;
64367;SDS011;50692;53.314;-6.300;2023-05-07T12:33:56;1.02;;;0.90;;
64367;SDS011;50692;53.314;-6.300;2023-05-07T12:36:42;1.40;;;0.90;;
64367;SDS011;50692;53.314;-6.300;2023-05-07T12:39:28;1.92;;;0.70;;
64367;SDS011;50692;53.314;-6.300;2023-05-07T12:42:18;1.08;;;0.80;;
64367;SDS011;50692;53.314;-6.300;2023-05-07T12:45:12;1.35;;;0.70;;
64367;SDS011;50692;53.314;-6.300;2023-05-07T12:48:01;1.30;;;0.90;;
64367;SDS011;50692;53.314;-6.300;2023-05-07T12:50:51;1.48;;;0.80;;
64367;SDS011;50692;53.314;-6.300;2023-05-07T12:53:41;1.10;;;1.00;;
64367;SDS011;50692;53.314;-6.300;2023-05-07T12:56:30;1.35;;;0.98;;
64367;SDS011;50692;53.314;-6.300;2023-05-07T12:59:16;1.02;;;0.80;;
64367;SDS011;50692;53.314;-6.300;2023-05-07T13:02:02;1.20;;;1.10;;
64367;SDS011;50692;53.314;-6.300;2023-05-07T13:04:48;1.10;;;0.80;;
64367;SDS011;50692;53.314;-6.300;2023-05-07T13:07:34;1.05;;;0.90;;
64367;SDS011;50692;53.314;-6.300;2023-05-07T13:10:21;1.10;;;1.00;;
64367;SDS011;50692;53.314;-6.300;2023-05-07T13:13:08;2.25;;;1.00;;
64367;SDS011;50692;53.314;-6.300;2023-05-07T13:15:54;1.05;;;1.00;;
64367;SDS011;50692;53.314;-6.300;2023-05-07T13:18:40;1.70;;;1.00;;
64367;SDS011;50692;53.314;-6.300;2023-05-07T13:21:29;2.17;;;1.13;;
64367;SDS011;50692;53.314;-6.300;2023-05-07T13:24:17;0.93;;;0.85;;
64367;SDS011;50692;53.314;-6.300;2023-05-07T13:27:03;1.63;;;0.80;;
64367;SDS011;50692;53.314;-6.300;2023-05-07T13:29:49;2.33;;;1.30;;
64367;SDS011;50692;53.314;-6.300;2023-05-07T13:32:35;1.55;;;1.00;;
64367;SDS011;50692;53.314;-6.300;2023-05-07T13:35:21;0.88;;;0.80;;
64367;SDS011;50692;53.314;-6.300;2023-05-07T13:38:07;1.33;;;1.13;;
64367;SDS011;50692;53.314;-6.300;2023-05-07T13:40:53;1.38;;;1.02;;
64367;SDS011;50692;53.314;-6.300;2023-05-07T13:43:39;1.63;;;0.90;;
64367;SDS011;50692;53.314;-6.300;2023-05-07T13:46:25;4.18;;;2.53;;
64367;SDS011;50692;53.314;-6.300;2023-05-07T13:49:11;1.65;;;1.00;;
64367;SDS011;50692;53.314;-6.300;2023-05-07T13:51:57;1.30;;;1.17;;
64367;SDS011;50692;53.314;-6.300;2023-05-07T13:54:43;2.15;;;1.10;;
64367;SDS011;50692;53.314;-6.300;2023-05-07T13:57:29;2.33;;;0.93;;
64367;SDS011;50692;53.314;-6.300;2023-05-07T14:00:15;1.58;;;0.93;;
64367;SDS011;50692;53.314;-6.300;2023-05-07T14:03:01;2.10;;;1.10;;
64367;SDS011;50692;53.314;-6.300;2023-05-07T14:05:47;1.20;;;1.10;;
64367;SDS011;50692;53.314;-6.300;2023-05-07T14:08:33;3.75;;;1.50;;
64367;SDS011;50692;53.314;-6.300;2023-05-07T14:11:20;1.40;;;1.20;;
64367;SDS011;50692;53.314;-6.300;2023-05-07T14:14:06;1.05;;;0.95;;
64367;SDS011;50692;53.314;-6.300;2023-05-07T14:16:52;1.30;;;1.00;;
64367;SDS011;50692;53.314;-6.300;2023-05-07T14:19:38;1.05;;;0.90;;
64367;SDS011;50692;53.314;-6.300;2023-05-07T14:22:23;1.10;;;1.00;;
64367;SDS011;50692;53.314;-6.300;2023-05-07T14:25:09;1.90;;;1.17;;
64367;SDS011;50692;53.314;-6.300;2023-05-07T14:27:55;1.55;;;1.20;;
64367;SDS011;50692;53.314;-6.300;2023-05-07T14:30:43;1.98;;;0.98;;
64367;SDS011;50692;53.314;-6.300;2023-05-07T14:33:28;3.88;;;1.42;;
64367;SDS011;50692;53.314;-6.300;2023-05-07T14:36:14;2.22;;;1.23;;
64367;SDS011;50692;53.314;-6.300;2023-05-07T14:39:00;2.83;;;1.20;;
64367;SDS011;50692;53.314;-6.300;2023-05-07T14:41:46;1.10;;;1.00;;
64367;SDS011;50692;53.314;-6.300;2023-05-07T14:44:33;1.50;;;1.20;;
64367;SDS011;50692;53.314;-6.300;2023-05-07T14:47:20;2.70;;;1.10;;
64367;SDS011;50692;53.314;-6.300;2023-05-07T14:50:05;1.67;;;0.93;;
64367;SDS011;50692;53.314;-6.300;2023-05-07T14:52:51;2.70;;;1.15;;
64367;SDS011;50692;53.314;-6.300;2023-05-07T14:55:37;1.00;;;0.90;;
64367;SDS011;50692;53.314;-6.300;2023-05-07T14:58:23;1.63;;;0.90;;
64367;SDS011;50692;53.314;-6.300;2023-05-07T15:01:09;1.58;;;0.80;;
64367;SDS011;50692;53.314;-6.300;2023-05-07T15:03:55;1.35;;;1.10;;
64367;SDS011;50692;53.314;-6.300;2023-05-07T15:06:41;0.85;;;0.82;;
64367;SDS011;50692;53.314;-6.300;2023-05-07T15:09:26;1.00;;;0.90;;
64367;SDS011;50692;53.314;-6.300;2023-05-07T15:12:13;0.88;;;0.80;;
64367;SDS011;50692;53.314;-6.300;2023-05-07T15:14:59;0.88;;;0.88;;
64367;SDS011;50692;53.314;-6.300;2023-05-07T15:17:45;1.48;;;1.00;;
64367;SDS011;50692;53.314;-6.300;2023-05-07T15:20:31;2.03;;;1.27;;
64367;SDS011;50692;53.314;-6.300;2023-05-07T15:23:17;1.73;;;1.00;;
64367;SDS011;50692;53.314;-6.300;2023-05-07T15:26:03;3.28;;;1.00;;
64367;SDS011;50692;53.314;-6.300;2023-05-07T15:28:50;1.17;;;0.90;;
64367;SDS011;50692;53.314;-6.300;2023-05-07T15:31:36;1.85;;;1.20;;
64367;SDS011;50692;53.314;-6.300;2023-05-07T15:34:23;1.65;;;0.90;;
64367;SDS011;50692;53.314;-6.300;2023-05-07T15:39:58;1.88;;;1.38;;
64367;SDS011;50692;53.314;-6.300;2023-05-07T15:42:44;2.92;;;1.10;;
64367;SDS011;50692;53.314;-6.300;2023-05-07T15:45:30;2.85;;;1.50;;
64367;SDS011;50692;53.314;-6.300;2023-05-07T15:48:16;2.90;;;1.17;;
64367;SDS011;50692;53.314;-6.300;2023-05-07T15:51:02;3.40;;;1.10;;
64367;SDS011;50692;53.314;-6.300;2023-05-07T15:53:49;3.03;;;1.30;;
64367;SDS011;50692;53.314;-6.300;2023-05-07T15:56:36;2.83;;;1.20;;
64367;SDS011;50692;53.314;-6.300;2023-05-07T15:59:23;3.00;;;1.05;;
64367;SDS011;50692;53.314;-6.300;2023-05-07T16:02:09;2.90;;;1.40;;
64367;SDS011;50692;53.314;-6.300;2023-05-07T16:04:55;2.65;;;1.35;;
64367;SDS011;50692;53.314;-6.300;2023-05-07T16:07:41;4.13;;;1.40;;
64367;SDS011;50692;53.314;-6.300;2023-05-07T16:10:29;1.75;;;1.10;;
64367;SDS011;50692;53.314;-6.300;2023-05-07T16:13:16;1.50;;;1.20;;
64367;SDS011;50692;53.314;-6.300;2023-05-07T16:16:05;3.60;;;1.60;;
64367;SDS011;50692;53.314;-6.300;2023-05-07T16:18:51;2.33;;;1.23;;
64367;SDS011;50692;53.314;-6.300;2023-05-07T16:21:36;3.17;;;1.20;;
64367;SDS011;50692;53.314;-6.300;2023-05-07T16:24:22;3.70;;;1.50;;
64367;SDS011;50692;53.314;-6.300;2023-05-07T16:27:08;2.45;;;1.20;;
64367;SDS011;50692;53.314;-6.300;2023-05-07T16:29:55;2.22;;;1.10;;
64367;SDS011;50692;53.314;-6.300;2023-05-07T16:32:41;2.50;;;1.35;;
64367;SDS011;50692;53.314;-6.300;2023-05-07T16:35:27;2.47;;;1.27;;
64367;SDS011;50692;53.314;-6.300;2023-05-07T16:38:12;3.10;;;1.35;;
64367;SDS011;50692;53.314;-6.300;2023-05-07T16:40:58;2.33;;;1.10;;
64367;SDS011;50692;53.314;-6.300;2023-05-07T16:43:44;2.58;;;1.17;;
64367;SDS011;50692;53.314;-6.300;2023-05-07T16:46:31;2.22;;;1.45;;